MI02 weather

Forrest River Airport
Maple City, Michigan, United States

Public forecast

Using degrees Fahrenheit for public forecast. Weather courtesy of forecast.io.

Closest aviation weather report (METAR) to Forrest River Airport

Closest report is Cherry Capital Airport, 15.9 nm (29.4 km) SE. Retrieved 2019/10/15 17:53 UTC (30 minutes ago):

KTVC 151753Z 10006KT 10SM -RA BKN060 OVC080 07/04 A2983 RMK AO2 SLP106 P0001 60001 T00720039 10072 20033 58031

Closest aviation forecast (TAF) to Forrest River Airport

Closest forecast is Cherry Capital Airport, 15.9 nm (29.4 km) SE. Retrieved 2019/10/15 18:45 UTC (0 seconds ago):

TAF KTVC 151743Z 1518/1618 14005KT P6SM -RA BKN060 OVC080 FM152100 13012G20KT P6SM VCSH OVC040 FM152300 15010KT 6SM -SHRA BR OVC030 FM160300 20006KT P6SM VCSH OVC013 FM161000 27008KT 6SM -SHRA BR BKN010